Randolph Air Force Base
KRND : now visible

Airfield :











YOU CAN JOIN US ON...

 
LOGIN :

Register | Disclaimer

   EN    FR    IT 

 









Legend :    VFR   Marginal VFR   IFR   Intensive IFR   Very Intensive IFR
Visi :
Ceiling :
>= 8 km
>= 3000ft
5 to 8 km
1000 to 3000 ft
1500m to 5 km
500 to 1000 ft
800 to 1500m
200 to 500 ft
< 800m
< 200 ft
Symbols :   Thunderstorms  Fog  Heavy snow  Heavy precipitations  Wind > 20 kt






- Airport Elevation : 761 ft


KRND - Randolph Air Force Base

CURRENT METAR :
  • 221517Z 14009KT 10SM OVC011 25/21 A3000 RMK AO2A SLP152

EXPIRED METARs :
  • 221456Z 15006KT 10SM BKN009 OVC013 25/21 A2999 RMK AO2A SLP148 T02470214 53010
  • 221421Z 13007KT 10SM OVC008 24/22 A2998 RMK AO2A SLP145
  • 221356Z 14006KT 10SM BKN007 BKN043 OVC050 23/22 A2998 RMK AO2A CIG 007V011 BKN007 V SCT SLP145 T02320216
  • 221349Z 13005KT 10SM BKN007 BKN026 OVC044 23/22 A2998 RMK AO2A CIG 007V009 SLP145
  • 221334Z 13005KT 10SM FEW006 BKN009 OVC032 23/22 A2998 RMK AO2A SLP145
  • 221308Z 13004KT 10SM BKN010 BKN016 OVC042 23/22 A2997 RMK AO2A CIG 010V015 BKN010 V SCT SLP142
  • 221256Z 13004KT 10SM SCT007 BKN016 OVC041 23/22 A2996 RMK AO2A CIG 007V016 BKN V OVC CIG 015 RWY15R CIG 015 RWY33R SLP138 T02250215

TAF TAF KRND
Valid from the 22 at 10:00 until the 23 at 16:00 UTC


221000Z 2210/2316 15008KT 9999 BKN009 BKN015 QNH2996INS
BECMG 2211/2212 14006KT 9000 BR VCSH BKN007 BKN012 QNH2996INS
BECMG 2214/2215 14010G15KT 9999 NSW SCT010 BKN020 QNH2999INS
BECMG 2217/2218 16010G15KT 9999 SCT025 BKN040 QNH2986INS
BECMG 2300/2301 14006KT 9999 SCT040 QNH2990INS
BECMG 2308/2309 16006KT 9999 BKN007 QNH2991INS
BECMG 2314/2315 17006KT 9999 VCSH BKN015 QNH2996INS TX31/2220Z TN22/2210Z
KZHU FIR / North America



MET'MAP, your aeronautical weather chart ! - Copyright ORBIFLY December 2007 - Disclaimer

ORBIFLY MET'MAP TEAM :

Programming & Development : Alexandra Zaïnal
Concept & original design : Baudouin d'Aumeries
Assistance for programming : Marc-Olivier Méhu
Technical & hardware support : Manuel Goepfert

Contact : metmap@orbifly.com




SOURCES & CREDITS :

   NOAA       Earth
Advisory